Time;durP1;ratioP1;P1;durP2;ratioP2;P2;SDS_P1;SDS_P2;PMS_P1;PMS_P2;Temp;Humidity;BMP_temperature;BMP_pressure;BME280_temperature;BME280_humidity;BME280_pressure;Samples;Min_cycle;Max_cycle;Signal;HPM_P1;HPM_P2
2020/12/03 00:00:58;;;;;;;55.07;28.00;;;6.90;92.70;;;;;;5076013;28;20047;-85
2020/12/03 00:03:51;;;;;;;54.10;28.30;;;6.90;92.70;;;;;;5075792;28;20028;-78
2020/12/03 00:06:21;;;;;;;58.03;29.57;;;7.00;92.80;;;;;;5075120;28;20050;-76
2020/12/03 00:08:59;;;;;;;61.53;29.73;;;7.00;92.70;;;;;;5075120;28;20016;-77
2020/12/03 00:11:28;;;;;;;57.63;28.33;;;7.00;92.70;;;;;;5075028;28;20019;-78
2020/12/03 00:13:53;;;;;;;58.20;30.10;;;7.00;92.70;;;;;;5074869;28;20020;-77
2020/12/03 00:16:20;;;;;;;55.40;29.23;;;7.00;92.70;;;;;;5058479;28;20074;-76
2020/12/03 00:18:46;;;;;;;59.50;29.93;;;6.90;92.70;;;;;;5058739;28;20024;-76
2020/12/03 00:21:13;;;;;;;61.53;30.93;;;7.00;92.70;;;;;;5075044;28;20379;-76
2020/12/03 00:23:41;;;;;;;65.80;29.90;;;7.00;92.70;;;;;;5076046;28;20076;-77
2020/12/03 00:26:07;;;;;;;62.20;31.33;;;6.90;92.70;;;;;;5074891;28;20078;-77
2020/12/03 00:28:40;;;;;;;64.90;33.13;;;6.90;93.00;;;;;;5075279;28;20027;-76
2020/12/03 00:31:06;;;;;;;66.43;33.03;;;7.00;92.80;;;;;;5075642;28;20017;-76
2020/12/03 00:33:32;;;;;;;66.60;33.13;;;6.90;92.80;;;;;;5042091;28;20077;-76
2020/12/03 00:35:58;;;;;;;69.27;34.37;;;6.90;92.70;;;;;;5057912;28;20031;-76
2020/12/03 00:38:24;;;;;;;67.50;32.53;;;7.00;92.80;;;;;;5057972;28;20031;-77
2020/12/03 00:40:50;;;;;;;64.50;33.20;;;6.90;92.80;;;;;;5074960;28;20145;-76
2020/12/03 00:43:17;;;;;;;68.13;34.90;;;7.00;92.80;;;;;;5058104;28;20029;-76
2020/12/03 00:45:46;;;;;;;70.10;34.60;;;6.90;92.80;;;;;;5057941;28;20036;-76
2020/12/03 00:48:16;;;;;;;65.90;33.53;;;6.90;92.80;;;;;;5076198;28;20017;-76
2020/12/03 00:50:42;;;;;;;74.13;36.10;;;6.90;92.80;;;;;;5075902;28;20021;-77
2020/12/03 00:53:08;;;;;;;69.77;34.80;;;7.00;92.90;;;;;;5059430;28;20387;-76
2020/12/03 00:55:33;;;;;;;66.03;33.37;;;6.90;92.80;;;;;;5077883;28;20078;-77
2020/12/03 00:57:59;;;;;;;80.17;37.83;;;7.10;93.10;;;;;;5045809;28;20028;-76
2020/12/03 01:00:24;;;;;;;72.47;33.23;;;7.00;93.10;;;;;;5061961;28;20120;-78
2020/12/03 01:02:50;;;;;;;74.77;36.13;;;6.90;92.80;;;;;;5060970;28;20029;-76
2020/12/03 01:05:18;;;;;;;67.77;33.10;;;7.00;92.80;;;;;;5075613;28;20098;-77
2020/12/03 01:07:43;;;;;;;72.07;36.40;;;7.00;92.90;;;;;;5076411;28;20498;-76
2020/12/03 01:10:18;;;;;;;74.27;32.80;;;7.00;92.90;;;;;;5059489;28;20029;-76
2020/12/03 01:12:44;;;;;;;77.63;36.50;;;6.90;92.80;;;;;;5076423;28;20505;-77
2020/12/03 01:15:10;;;;;;;68.90;34.90;;;7.00;92.90;;;;;;5059365;28;20024;-77
2020/12/03 01:17:35;;;;;;;72.73;34.67;;;6.90;92.80;;;;;;5059056;28;20051;-76
2020/12/03 01:20:04;;;;;;;80.83;36.80;;;7.00;92.80;;;;;;5059201;28;20021;-77
2020/12/03 01:22:30;;;;;;;73.03;35.73;;;7.00;92.90;;;;;;5075808;28;20013;-76
2020/12/03 01:24:55;;;;;;;68.13;34.07;;;7.00;92.80;;;;;;5058944;28;20032;-76
2020/12/03 01:27:21;;;;;;;68.50;34.97;;;6.90;92.80;;;;;;5057339;28;20484;-77
2020/12/03 01:29:47;;;;;;;74.10;35.30;;;7.00;92.90;;;;;;5040458;28;20028;-76
2020/12/03 01:32:12;;;;;;;71.70;36.07;;;7.00;92.80;;;;;;5057296;28;20020;-84
2020/12/03 01:34:38;;;;;;;76.40;36.17;;;7.00;92.80;;;;;;5041018;28;20036;-85
2020/12/03 01:37:03;;;;;;;73.10;32.70;;;7.00;92.80;;;;;;5073796;28;20086;-86
2020/12/03 01:39:29;;;;;;;76.40;35.03;;;7.00;92.80;;;;;;5040406;28;20039;-85
2020/12/03 01:41:54;;;;;;;69.63;34.33;;;6.90;92.80;;;;;;5073609;28;20107;-85
2020/12/03 01:44:40;;;;;;;68.23;33.87;;;6.90;92.80;;;;;;5056936;28;20070;-84
2020/12/03 01:47:12;;;;;;;62.33;31.20;;;6.90;92.80;;;;;;5074755;28;20090;-86
2020/12/03 01:49:37;;;;;;;60.17;31.63;;;6.80;92.80;;;;;;5073276;28;20017;-85
2020/12/03 01:52:04;;;;;;;70.77;33.20;;;6.90;92.70;;;;;;5073678;28;20040;-85
2020/12/03 01:54:29;;;;;;;67.13;33.90;;;6.90;92.70;;;;;;5056686;28;20029;-84
2020/12/03 01:57:05;;;;;;;63.97;32.60;;;6.80;92.70;;;;;;5056776;28;20042;-86
2020/12/03 01:59:48;;;;;;;58.30;31.07;;;6.90;92.70;;;;;;5073195;28;20376;-86
2020/12/03 02:02:16;;;;;;;59.37;31.17;;;6.90;92.70;;;;;;5073127;28;20025;-85
2020/12/03 02:04:42;;;;;;;61.03;30.47;;;6.70;92.70;;;;;;5074399;28;20039;-86
2020/12/03 02:07:11;;;;;;;63.67;31.37;;;6.90;92.70;;;;;;5074518;28;20024;-84
2020/12/03 02:09:37;;;;;;;58.53;29.23;;;6.80;92.70;;;;;;5072930;28;20051;-85
2020/12/03 02:12:03;;;;;;;57.90;30.00;;;6.80;92.70;;;;;;5074190;28;20028;-84
2020/12/03 02:14:30;;;;;;;56.50;28.37;;;6.80;92.70;;;;;;5072805;28;20032;-84
2020/12/03 02:16:56;;;;;;;62.20;30.47;;;6.80;92.70;;;;;;5074011;28;20028;-86
2020/12/03 02:19:32;;;;;;;57.03;28.40;;;6.80;92.90;;;;;;5039526;28;20029;-86
2020/12/03 02:22:05;;;;;;;54.73;28.23;;;6.70;92.70;;;;;;5056220;28;20039;-85
2020/12/03 02:24:38;;;;;;;59.43;27.73;;;6.70;92.70;;;;;;5074055;28;20108;-85
2020/12/03 02:27:06;;;;;;;52.78;27.45;;;6.70;92.70;;;;;;5072803;28;20072;-85
2020/12/03 02:29:32;;;;;;;58.83;28.10;;;6.70;92.70;;;;;;5072859;28;20023;-86
2020/12/03 02:31:58;;;;;;;56.53;29.40;;;6.70;92.70;;;;;;5056138;28;20024;-86
2020/12/03 02:34:23;;;;;;;54.80;27.33;;;6.70;92.70;;;;;;5056178;28;20028;-86
2020/12/03 02:36:51;;;;;;;56.17;27.93;;;6.80;92.70;;;;;;5055823;28;20029;-84
2020/12/03 02:39:18;;;;;;;61.17;25.93;;;6.70;92.70;;;;;;5072413;28;20021;-85
2020/12/03 02:41:43;;;;;;;54.87;28.10;;;6.70;92.70;;;;;;5072358;28;20380;-85
2020/12/03 02:44:09;;;;;;;56.00;27.77;;;6.70;92.70;;;;;;5055842;28;20040;-85
2020/12/03 02:46:35;;;;;;;58.07;28.37;;;6.70;92.60;;;;;;5055774;28;20508;-86
2020/12/03 02:49:01;;;;;;;50.93;27.63;;;6.70;92.80;;;;;;5072628;28;20028;-85
2020/12/03 02:51:26;;;;;;;53.53;26.77;;;6.70;92.60;;;;;;5039270;28;20056;-85
2020/12/03 02:53:52;;;;;;;50.03;25.80;;;6.70;92.60;;;;;;5038999;28;20029;-85
2020/12/03 02:56:18;;;;;;;53.23;27.03;;;6.70;92.60;;;;;;5055729;28;20028;-86
2020/12/03 02:58:43;;;;;;;57.27;27.57;;;6.70;92.60;;;;;;5055759;28;20427;-86
2020/12/03 03:01:09;;;;;;;50.80;28.37;;;6.60;92.50;;;;;;5055541;28;20028;-86
2020/12/03 03:03:34;;;;;;;48.87;24.50;;;6.60;92.50;;;;;;5073695;28;20025;-86
2020/12/03 03:06:00;;;;;;;50.70;26.60;;;6.60;92.50;;;;;;5039208;28;20025;-76
2020/12/03 03:08:26;;;;;;;48.30;24.10;;;6.60;92.50;;;;;;5055809;28;20517;-78
2020/12/03 03:10:51;;;;;;;48.00;24.30;;;6.60;92.50;;;;;;5055604;28;20024;-75
2020/12/03 03:13:18;;;;;;;49.07;24.77;;;6.60;92.50;;;;;;5055252;28;20032;-77
2020/12/03 03:15:43;;;;;;;47.20;23.30;;;6.60;92.50;;;;;;5055447;28;20040;-76
2020/12/03 03:18:09;;;;;;;47.03;23.17;;;6.60;92.50;;;;;;5055340;28;20029;-77
2020/12/03 03:20:35;;;;;;;48.07;23.57;;;6.60;92.50;;;;;;5039050;28;20028;-77
2020/12/03 03:23:01;;;;;;;43.70;23.63;;;6.60;92.50;;;;;;5071815;28;20024;-76
2020/12/03 03:25:27;;;;;;;49.13;24.83;;;6.50;92.40;;;;;;5055278;28;20021;-76
2020/12/03 03:27:52;;;;;;;50.67;25.03;;;6.50;92.40;;;;;;5073377;28;20385;-76
2020/12/03 03:30:19;;;;;;;43.77;24.43;;;6.50;92.50;;;;;;5075915;28;20041;-76
2020/12/03 03:32:44;;;;;;;46.20;22.43;;;6.50;92.50;;;;;;5076004;28;20112;-85
2020/12/03 03:35:10;;;;;;;46.43;23.40;;;6.60;92.50;;;;;;5042661;28;20472;-84
2020/12/03 03:37:35;;;;;;;51.57;25.00;;;6.50;92.50;;;;;;5076106;28;20024;-84
2020/12/03 03:40:05;;;;;;;50.07;23.43;;;6.70;92.50;;;;;;5059261;28;20161;-84
2020/12/03 03:42:31;;;;;;;46.20;22.43;;;6.50;92.50;;;;;;5075982;28;20051;-84
2020/12/03 03:44:56;;;;;;;48.33;23.30;;;6.60;92.50;;;;;;5057849;28;20048;-85
2020/12/03 03:47:22;;;;;;;48.03;24.60;;;6.50;92.50;;;;;;5042476;28;20021;-84
2020/12/03 03:49:48;;;;;;;46.57;23.97;;;6.60;92.50;;;;;;5075637;28;20067;-86
2020/12/03 03:52:14;;;;;;;48.53;22.37;;;6.60;92.80;;;;;;5042411;28;20064;-85
2020/12/03 03:54:39;;;;;;;46.13;23.50;;;6.60;92.50;;;;;;5058942;28;20032;-85
2020/12/03 03:57:05;;;;;;;50.57;23.90;;;6.60;92.50;;;;;;5058817;28;20123;-85
2020/12/03 03:59:31;;;;;;;43.87;22.43;;;6.60;92.40;;;;;;5042324;28;20036;-84
2020/12/03 04:01:57;;;;;;;49.13;22.33;;;6.60;92.40;;;;;;5058942;28;20036;-85
2020/12/03 04:04:22;;;;;;;50.57;23.47;;;6.60;92.40;;;;;;5075395;28;20030;-84
2020/12/03 04:06:48;;;;;;;48.60;23.53;;;6.70;92.40;;;;;;5058590;28;20112;-85
2020/12/03 04:09:14;;;;;;;47.93;22.43;;;6.60;92.30;;;;;;5058741;28;20472;-84
2020/12/03 04:11:39;;;;;;;43.13;22.40;;;6.70;92.40;;;;;;5075315;28;20154;-85
2020/12/03 04:14:05;;;;;;;48.07;22.73;;;6.60;92.30;;;;;;5058721;28;20029;-84
2020/12/03 04:16:31;;;;;;;43.93;23.10;;;6.60;92.30;;;;;;5076562;28;20028;-84
2020/12/03 04:18:56;;;;;;;47.40;22.43;;;6.60;92.30;;;;;;5042026;28;20036;-85
2020/12/03 04:21:22;;;;;;;43.37;21.73;;;6.70;92.40;;;;;;5075259;28;20480;-85
2020/12/03 04:23:47;;;;;;;45.27;24.20;;;6.60;92.30;;;;;;5075226;28;20037;-85
2020/12/03 04:26:13;;;;;;;50.30;23.37;;;6.70;92.30;;;;;;5058478;28;20025;-86
2020/12/03 04:28:40;;;;;;;49.90;23.67;;;6.70;92.30;;;;;;5041648;28;20090;-85
2020/12/03 04:31:06;;;;;;;44.77;22.73;;;6.60;92.30;;;;;;5058485;28;20076;-86
2020/12/03 04:33:32;;;;;;;49.10;23.47;;;6.70;92.30;;;;;;5075018;28;20025;-84
2020/12/03 04:35:58;;;;;;;44.00;23.37;;;6.70;92.30;;;;;;5058478;28;20028;-84
2020/12/03 04:38:23;;;;;;;49.93;23.40;;;6.70;92.30;;;;;;5058894;28;20040;-84
2020/12/03 04:40:51;;;;;;;44.47;22.37;;;6.70;92.30;;;;;;5074848;28;20033;-86
2020/12/03 04:43:30;;;;;;;49.90;22.50;;;6.70;92.30;;;;;;5074767;28;20399;-85
2020/12/03 04:46:24;;;;;;;44.47;22.67;;;6.70;92.30;;;;;;5074559;28;20411;-85
2020/12/03 04:49:02;;;;;;;;;;;6.70;92.30;;;;;;5071071;28;20138;-85
2020/12/03 04:51:53;;;;;;;41.90;21.53;;;6.70;92.30;;;;;;5074736;28;19995;-85
2020/12/03 04:54:46;;;;;;;48.37;22.27;;;6.70;92.30;;;;;;5074352;28;20070;-85
2020/12/03 04:57:26;;;;;;;47.70;22.43;;;6.70;92.30;;;;;;5074514;28;20025;-85
2020/12/03 05:00:16;;;;;;;47.27;24.17;;;6.70;92.20;;;;;;5074449;28;20036;-85
2020/12/03 05:03:00;;;;;;;40.83;21.13;;;6.80;92.30;;;;;;5074347;28;20044;-86
2020/12/03 05:05:50;;;;;;;42.35;22.80;;;6.80;92.30;;;;;;5074239;28;20484;-84
2020/12/03 05:08:28;;;;;;;50.70;24.13;;;6.80;92.30;;;;;;5074342;28;20162;-85
2020/12/03 05:10:54;;;;;;;42.17;20.37;;;6.80;92.30;;;;;;5074214;28;20074;-85
2020/12/03 05:13:21;;;;;;;45.93;22.90;;;6.80;92.30;;;;;;5074202;28;20076;-84
2020/12/03 05:15:50;;;;;;;41.30;21.93;;;6.80;92.30;;;;;;5073475;28;20021;-85
2020/12/03 05:18:21;;;;;;;43.90;22.67;;;6.70;92.30;;;;;;5074235;28;20380;-85
2020/12/03 05:20:52;;;;;;;43.23;21.93;;;6.80;92.60;;;;;;5075170;28;20027;-85
2020/12/03 05:23:27;;;;;;;44.13;22.63;;;6.80;92.30;;;;;;5073875;28;20039;-85
2020/12/03 05:25:55;;;;;;;40.77;21.60;;;6.80;92.20;;;;;;5079220;28;20590;-84
2020/12/03 05:28:21;;;;;;;52.73;23.07;;;6.80;92.20;;;;;;5075149;28;20044;-84
2020/12/03 05:30:52;;;;;;;45.10;22.03;;;6.80;92.20;;;;;;5075041;28;20477;-85
2020/12/03 05:33:18;;;;;;;46.67;21.37;;;6.90;92.30;;;;;;5073843;28;20507;-85
2020/12/03 05:35:44;;;;;;;39.37;20.73;;;6.80;92.20;;;;;;5056970;28;20056;-85
2020/12/03 05:38:25;;;;;;;39.70;19.50;;;6.90;92.30;;;;;;5073900;28;20048;-85
2020/12/03 05:40:59;;;;;;;47.67;22.10;;;6.70;92.20;;;;;;5073382;28;20091;-84
2020/12/03 05:43:25;;;;;;;;;;;6.90;92.30;;;;;;5074239;28;20024;-75
2020/12/03 05:45:52;;;;;;;39.53;21.03;;;6.80;92.30;;;;;;5056618;28;20037;-75
2020/12/03 05:48:20;;;;;;;40.63;19.63;;;6.90;92.30;;;;;;5073644;28;20074;-75
2020/12/03 05:50:46;;;;;;;44.20;22.17;;;6.90;92.30;;;;;;5072948;28;20043;-76
2020/12/03 05:53:20;;;;;;;46.00;21.13;;;6.80;92.30;;;;;;5073380;28;20465;-75
2020/12/03 05:55:47;;;;;;;42.40;22.23;;;6.80;92.60;;;;;;5074368;28;20021;-75
2020/12/03 05:58:18;;;;;;;38.67;19.67;;;6.90;92.40;;;;;;5073179;28;20020;-77
2020/12/03 06:00:44;;;;;;;38.80;20.57;;;6.90;92.40;;;;;;5074424;28;20126;-77
2020/12/03 06:03:10;;;;;;;35.13;19.40;;;6.90;92.50;;;;;;5039907;28;20060;-76
2020/12/03 06:06:17;;;;;;;40.07;22.03;;;6.90;92.50;;;;;;5072973;28;20075;-77
2020/12/03 06:09:16;;;;;;;36.70;19.73;;;6.90;92.50;;;;;;5072836;28;20040;-76
2020/12/03 06:12:08;;;;;;;40.37;20.33;;;6.80;92.60;;;;;;5072790;28;20055;-76
2020/12/03 06:14:54;;;;;;;39.10;19.80;;;6.80;92.90;;;;;;5072674;28;20422;-76
2020/12/03 06:17:43;;;;;;;38.37;21.60;;;6.80;92.80;;;;;;5072773;28;20027;-76
2020/12/03 06:20:39;;;;;;;35.80;18.33;;;6.80;92.80;;;;;;5074110;28;20021;-76
2020/12/03 06:23:27;;;;;;;35.47;18.33;;;6.80;92.80;;;;;;5072564;28;20420;-76
2020/12/03 06:26:31;;;;;;;32.67;18.13;;;6.80;92.90;;;;;;5072588;28;20047;-75
2020/12/03 06:29:34;;;;;;;34.67;18.15;;;6.70;92.90;;;;;;5072460;28;20388;-75
2020/12/03 06:32:15;;;;;;;30.20;17.67;;;6.80;93.00;;;;;;5071661;28;20066;-76
2020/12/03 06:34:57;;;;;;;33.23;18.00;;;6.70;93.00;;;;;;5072202;28;20032;-76
2020/12/03 06:37:31;;;;;;;29.53;17.33;;;6.70;93.00;;;;;;5072208;28;20038;-76
2020/12/03 06:40:08;;;;;;;34.00;18.75;;;6.70;93.10;;;;;;5072870;28;20028;-76
2020/12/03 06:42:40;;;;;;;33.40;18.33;;;6.70;93.20;;;;;;5072399;28;20024;-75
2020/12/03 06:45:23;;;;;;;34.03;17.50;;;6.70;93.20;;;;;;5073432;28;20136;-76
2020/12/03 06:48:15;;;;;;;35.50;18.57;;;6.70;93.20;;;;;;5072319;28;20033;-76
2020/12/03 06:50:52;;;;;;;34.57;18.50;;;6.70;93.30;;;;;;5073512;28;20052;-76
2020/12/03 06:53:48;;;;;;;30.07;18.37;;;6.70;93.30;;;;;;5072321;28;20160;-76
2020/12/03 06:56:36;;;;;;;31.43;19.33;;;6.70;93.30;;;;;;5073579;28;20035;-76
2020/12/03 06:59:20;;;;;;;34.07;19.23;;;6.70;93.30;;;;;;5052187;28;20071;-77
2020/12/03 07:02:16;;;;;;;29.30;18.00;;;6.70;93.40;;;;;;5052750;28;20040;-76
2020/12/03 07:05:15;;;;;;;27.80;17.13;;;6.70;93.40;;;;;;5066061;28;20025;-77
2020/12/03 07:07:50;;;;;;;26.87;15.37;;;6.70;93.50;;;;;;5072045;28;20127;-76
2020/12/03 07:10:56;;;;;;;27.70;15.63;;;6.70;93.50;;;;;;5070507;28;20036;-77
2020/12/03 07:13:47;;;;;;;26.80;15.80;;;6.70;93.50;;;;;;5060825;28;20162;-76
2020/12/03 07:16:19;;;;;;;28.33;17.03;;;6.70;93.50;;;;;;5070794;28;20035;-76
2020/12/03 07:19:03;;;;;;;31.57;17.70;;;6.70;93.60;;;;;;5069228;28;20033;-77
2020/12/03 07:21:47;;;;;;;32.75;17.40;;;6.70;93.70;;;;;;5063853;28;20032;-77
2020/12/03 07:24:44;;;;;;;34.55;18.83;;;6.70;93.70;;;;;;5070315;28;20033;-78
2020/12/03 07:27:10;;;;;;;31.57;17.20;;;6.60;93.70;;;;;;5050895;28;20041;-76
2020/12/03 07:30:13;;;;;;;34.47;18.93;;;6.70;93.80;;;;;;5069077;28;20039;-77
2020/12/03 07:32:53;;;;;;;33.00;19.07;;;6.70;93.80;;;;;;5066157;28;20023;-76
2020/12/03 07:35:53;;;;;;;34.03;19.60;;;6.60;93.80;;;;;;5064564;28;20523;-76
2020/12/03 07:38:50;;;;;;;43.03;21.37;;;6.60;93.80;;;;;;5053297;28;20127;-76
2020/12/03 07:41:19;;;;;;;43.10;22.17;;;6.60;93.90;;;;;;5070534;28;20017;-76
2020/12/03 07:43:45;;;;;;;41.57;22.53;;;6.60;93.80;;;;;;5065869;28;20025;-76
2020/12/03 07:46:29;;;;;;;38.13;20.77;;;6.60;93.90;;;;;;5061138;28;20033;-76
2020/12/03 07:48:55;;;;;;;41.22;22.95;;;6.60;93.90;;;;;;5053284;28;20013;-76
2020/12/03 07:51:23;;;;;;;43.97;22.50;;;6.60;93.90;;;;;;5059678;28;20021;-76
2020/12/03 07:54:17;;;;;;;40.33;22.60;;;6.50;93.80;;;;;;5065419;28;20056;-77
2020/12/03 07:56:45;;;;;;;41.73;23.20;;;6.60;93.90;;;;;;5067451;28;20021;-79
2020/12/03 07:59:23;;;;;;;41.17;22.80;;;6.60;93.80;;;;;;5062762;28;20053;-76
2020/12/03 08:01:49;;;;;;;46.43;24.07;;;6.60;93.80;;;;;;5052824;28;20681;-78
2020/12/03 08:04:18;;;;;;;43.13;23.83;;;6.60;93.80;;;;;;5042518;28;20033;-78
2020/12/03 08:07:02;;;;;;;45.60;23.27;;;6.60;93.70;;;;;;5055539;28;20067;-78
2020/12/03 08:09:41;;;;;;;41.63;22.33;;;6.60;93.70;;;;;;5059936;28;20427;-77
2020/12/03 08:12:13;;;;;;;47.67;23.67;;;6.70;93.70;;;;;;5054222;28;20021;-77
2020/12/03 08:14:44;;;;;;;43.90;22.30;;;6.70;93.70;;;;;;5073743;28;20059;-77
2020/12/03 08:17:22;;;;;;;36.30;20.20;;;6.70;93.60;;;;;;5070832;28;20032;-75
2020/12/03 08:20:03;;;;;;;37.63;20.87;;;6.70;93.50;;;;;;5073858;28;20123;-76
2020/12/03 08:22:35;;;;;;;37.03;19.07;;;6.70;93.50;;;;;;5066260;28;20068;-76
2020/12/03 08:25:27;;;;;;;41.10;20.83;;;6.70;93.50;;;;;;5074473;28;20025;-76
2020/12/03 08:27:58;;;;;;;36.20;19.23;;;6.70;93.60;;;;;;5070827;28;20017;-78
2020/12/03 08:30:44;;;;;;;39.30;20.60;;;6.70;93.60;;;;;;5066647;28;20031;-75
2020/12/03 08:33:17;;;;;;;34.70;19.53;;;6.70;93.60;;;;;;5064163;28;20385;-74
2020/12/03 08:35:58;;;;;;;33.47;19.33;;;6.60;93.60;;;;;;5074406;28;20043;-75
2020/12/03 08:38:32;;;;;;;42.33;19.77;;;6.60;93.90;;;;;;5074722;28;20017;-76
2020/12/03 08:41:01;;;;;;;40.63;19.98;;;6.70;93.70;;;;;;5066824;28;20013;-76
2020/12/03 08:43:30;;;;;;;33.27;17.90;;;6.70;93.80;;;;;;5066512;28;20052;-76
2020/12/03 08:46:11;;;;;;;43.40;19.87;;;6.70;93.60;;;;;;5051368;28;20048;-77
2020/12/03 08:48:39;;;;;;;45.97;20.13;;;6.70;93.50;;;;;;5055644;28;20064;-75
2020/12/03 08:51:11;;;;;;;33.00;18.67;;;6.70;93.50;;;;;;5071644;28;20021;-77
2020/12/03 08:53:39;;;;;;;40.40;19.50;;;6.70;93.50;;;;;;5054303;28;20365;-76
2020/12/03 08:56:17;;;;;;;39.10;19.23;;;6.80;93.40;;;;;;5050317;28;20029;-74
2020/12/03 08:58:58;;;;;;;36.47;17.43;;;6.70;93.40;;;;;;5064578;28;20020;-75
2020/12/03 09:01:25;;;;;;;37.20;16.57;;;6.70;93.60;;;;;;5068603;28;20044;-77
2020/12/03 09:03:52;;;;;;;35.27;16.33;;;6.70;93.30;;;;;;5057165;28;20025;-77
2020/12/03 09:06:18;;;;;;;32.80;16.63;;;6.80;93.20;;;;;;5074091;28;20392;-75
2020/12/03 09:08:44;;;;;;;37.27;17.93;;;6.80;93.00;;;;;;5058318;28;20021;-77
2020/12/03 09:11:10;;;;;;;35.80;16.83;;;6.80;92.90;;;;;;5053703;28;20017;-75
2020/12/03 09:13:36;;;;;;;32.83;15.77;;;6.80;92.90;;;;;;5044107;28;20033;-76
2020/12/03 09:16:03;;;;;;;29.17;15.60;;;6.80;92.80;;;;;;5036961;28;20033;-75
2020/12/03 09:18:28;;;;;;;34.87;16.23;;;6.80;92.70;;;;;;5068918;28;20036;-75
2020/12/03 09:20:54;;;;;;;33.73;17.60;;;6.80;92.60;;;;;;5053824;28;20029;-76
2020/12/03 09:23:25;;;;;;;31.80;16.83;;;6.80;92.50;;;;;;5069310;28;20070;-77
2020/12/03 09:25:51;;;;;;;36.97;16.37;;;6.90;92.40;;;;;;5052832;28;20496;-74
2020/12/03 09:28:18;;;;;;;36.27;17.63;;;6.80;92.40;;;;;;5055490;28;20124;-77
2020/12/03 09:30:46;;;;;;;32.50;17.43;;;6.90;92.50;;;;;;5049701;28;20025;-74
2020/12/03 09:33:23;;;;;;;31.93;18.23;;;6.80;92.50;;;;;;5055090;28;20039;-75
2020/12/03 09:35:51;;;;;;;34.13;17.67;;;6.80;92.60;;;;;;5049301;28;20032;-74
2020/12/03 09:38:18;;;;;;;34.17;17.20;;;6.80;92.70;;;;;;5072712;28;20050;-76
2020/12/03 09:40:49;;;;;;;35.43;17.47;;;6.80;92.80;;;;;;5062361;28;20013;-77
2020/12/03 09:43:23;;;;;;;36.33;19.57;;;6.70;92.80;;;;;;5037352;28;20041;-76
2020/12/03 09:45:57;;;;;;;36.53;19.83;;;6.70;92.90;;;;;;5041836;28;20057;-78
2020/12/03 09:48:27;;;;;;;37.33;19.00;;;6.70;93.00;;;;;;5062766;28;20059;-77
2020/12/03 09:50:52;;;;;;;41.33;20.33;;;6.70;93.10;;;;;;5062864;28;20024;-75
2020/12/03 09:53:20;;;;;;;38.60;20.77;;;6.70;93.20;;;;;;5038333;28;20033;-78
2020/12/03 09:55:47;;;;;;;44.50;22.23;;;6.70;93.20;;;;;;5067299;28;20074;-77
2020/12/03 09:58:19;;;;;;;44.50;20.70;;;6.70;93.30;;;;;;5053011;28;20053;-76
2020/12/03 10:00:46;;;;;;;37.37;21.43;;;6.70;93.40;;;;;;5057553;28;20108;-77
2020/12/03 10:03:21;;;;;;;41.40;21.37;;;6.60;93.40;;;;;;5072174;28;20024;-78
2020/12/03 10:05:51;;;;;;;41.53;21.60;;;6.70;93.50;;;;;;5062567;28;20036;-76
2020/12/03 10:08:35;;;;;;;42.97;22.83;;;6.70;93.50;;;;;;5061881;28;20100;-76
2020/12/03 10:11:19;;;;;;;46.42;22.88;;;6.60;93.50;;;;;;5072374;28;20028;-76
2020/12/03 10:13:47;;;;;;;42.80;21.57;;;6.60;93.80;;;;;;5064976;28;20021;-77
2020/12/03 10:16:27;;;;;;;40.37;23.33;;;6.60;93.50;;;;;;5064147;28;20115;-77
2020/12/03 10:18:58;;;;;;;46.67;22.17;;;6.60;93.50;;;;;;5061391;28;20028;-75
2020/12/03 10:21:32;;;;;;;40.73;22.00;;;6.60;93.50;;;;;;5072679;28;20022;-77
2020/12/03 10:24:17;;;;;;;36.47;21.27;;;6.70;93.50;;;;;;5073485;28;20016;-76
2020/12/03 10:26:50;;;;;;;37.70;20.23;;;6.60;93.50;;;;;;5066381;28;20033;-78
2020/12/03 10:29:18;;;;;;;45.27;20.80;;;6.60;93.40;;;;;;5052589;28;20029;-75
2020/12/03 10:31:46;;;;;;;36.30;20.10;;;6.70;93.40;;;;;;5069981;28;20024;-77
2020/12/03 10:34:13;;;;;;;39.17;20.43;;;6.70;93.70;;;;;;5068132;28;20021;-76
2020/12/03 10:36:50;;;;;;;40.13;21.83;;;6.70;93.60;;;;;;5065441;28;20025;-75
2020/12/03 10:39:18;;;;;;;43.33;21.17;;;6.70;93.20;;;;;;5070687;28;20040;-77
2020/12/03 10:41:52;;;;;;;37.20;21.10;;;6.70;93.20;;;;;;5071077;28;20098;-76
2020/12/03 10:44:20;;;;;;;35.13;19.80;;;6.70;93.10;;;;;;5071869;28;20380;-76
2020/12/03 10:46:50;;;;;;;35.47;18.87;;;6.70;93.10;;;;;;5057328;28;20044;-77
2020/12/03 10:49:19;;;;;;;39.07;19.97;;;6.60;93.10;;;;;;5060500;28;20021;-76
2020/12/03 10:51:45;;;;;;;39.00;20.23;;;6.70;93.00;;;;;;5065600;28;20043;-76
2020/12/03 10:54:19;;;;;;;34.10;19.43;;;6.70;93.00;;;;;;5067338;28;20025;-78
2020/12/03 10:56:51;;;;;;;36.13;20.60;;;6.80;93.10;;;;;;5046324;28;20024;-75
2020/12/03 10:59:30;;;;;;;38.37;20.20;;;6.70;92.90;;;;;;5043767;28;20082;-76
2020/12/03 11:01:57;;;;;;;38.87;20.90;;;6.80;92.90;;;;;;5065706;28;20409;-75
2020/12/03 11:04:24;;;;;;;39.60;21.23;;;6.80;92.80;;;;;;5051941;28;20481;-76
2020/12/03 11:06:49;;;;;;;38.27;20.27;;;6.80;92.70;;;;;;5040298;28;20016;-78
2020/12/03 11:09:18;;;;;;;36.23;21.20;;;6.70;92.70;;;;;;5030296;28;20040;-77
2020/12/03 11:11:46;;;;;;;39.83;20.47;;;6.90;92.70;;;;;;5052909;28;20043;-75
2020/12/03 11:14:13;;;;;;;37.27;21.10;;;6.80;92.60;;;;;;5051299;28;20029;-76
2020/12/03 11:16:54;;;;;;;34.80;19.53;;;6.80;92.60;;;;;;5043761;28;20033;-78
2020/12/03 11:19:23;;;;;;;39.90;19.97;;;6.80;92.70;;;;;;5052412;28;20033;-84
2020/12/03 11:22:09;;;;;;;38.03;20.40;;;6.90;92.50;;;;;;5052975;28;20127;-85
2020/12/03 11:24:47;;;;;;;44.67;19.97;;;6.90;92.50;;;;;;5065841;28;20144;-83
2020/12/03 11:27:19;;;;;;;33.37;19.43;;;6.90;92.30;;;;;;5072455;28;20070;-82
2020/12/03 11:29:44;;;;;;;34.63;19.73;;;6.90;92.40;;;;;;5072435;28;20431;-82
2020/12/03 11:32:19;;;;;;;41.53;20.93;;;6.90;92.20;;;;;;5061167;28;20029;-84
2020/12/03 11:34:44;;;;;;;39.90;21.80;;;6.90;92.20;;;;;;5044706;28;20037;-84
2020/12/03 11:37:10;;;;;;;38.07;20.50;;;6.90;92.20;;;;;;5043469;28;20374;-85
2020/12/03 11:39:36;;;;;;;33.13;19.60;;;6.90;92.20;;;;;;5066416;28;20056;-82
2020/12/03 11:42:25;;;;;;;35.27;19.67;;;6.90;92.10;;;;;;5071725;28;20043;-74
2020/12/03 11:45:28;;;;;;;35.47;18.80;;;7.00;92.20;;;;;;5063464;28;20032;-76
2020/12/03 11:48:09;;;;;;;38.33;20.23;;;7.00;91.90;;;;;;5061007;28;20032;-76
2020/12/03 11:50:39;;;;;;;31.40;17.60;;;6.90;91.90;;;;;;5055429;28;20088;-77
2020/12/03 11:53:06;;;;;;;30.83;18.27;;;7.00;91.80;;;;;;5050882;28;20139;-79
2020/12/03 11:55:40;;;;;;;33.30;19.60;;;7.00;91.70;;;;;;5053235;28;20036;-77
2020/12/03 11:58:07;;;;;;;31.45;17.80;;;7.10;91.60;;;;;;5065559;28;20357;-75
2020/12/03 12:00:33;;;;;;;31.00;17.30;;;7.00;91.50;;;;;;5058654;28;20021;-75
2020/12/03 12:03:03;;;;;;;30.70;19.10;;;7.20;91.50;;;;;;5045156;28;20033;-75
2020/12/03 12:10:39;;;;;;;33.37;17.93;;;7.00;91.30;;;;;;5073900;28;20501;-79
2020/12/03 12:13:06;;;;;;;33.53;18.77;;;7.10;91.30;;;;;;5052005;28;20021;-75
2020/12/03 12:15:31;;;;;;;27.40;16.93;;;7.10;91.00;;;;;;5026840;28;20120;-77
2020/12/03 12:17:57;;;;;;;31.93;16.73;;;7.10;91.10;;;;;;5057715;28;20094;-76
2020/12/03 12:20:23;;;;;;;28.30;16.50;;;7.00;91.00;;;;;;5035683;28;20031;-78
2020/12/03 12:22:49;;;;;;;29.03;16.80;;;7.10;91.00;;;;;;5041989;28;20457;-78
2020/12/03 12:25:15;;;;;;;24.90;15.47;;;7.10;91.00;;;;;;5036469;28;20052;-77
2020/12/03 12:27:40;;;;;;;27.27;14.90;;;7.10;90.90;;;;;;5050679;28;20021;-79
2020/12/03 12:30:06;;;;;;;26.77;15.60;;;7.10;90.90;;;;;;5047195;28;20028;-79
2020/12/03 12:32:32;;;;;;;28.17;14.10;;;7.10;90.80;;;;;;5041778;28;20477;-76
2020/12/03 12:34:58;;;;;;;24.27;14.47;;;7.20;90.70;;;;;;5038551;28;20036;-78
2020/12/03 12:37:24;;;;;;;22.43;13.60;;;7.20;90.70;;;;;;5038734;28;20094;-75
2020/12/03 12:39:50;;;;;;;22.00;14.33;;;7.20;90.60;;;;;;5054806;28;20036;-77
2020/12/03 12:42:15;;;;;;;28.00;14.03;;;7.20;90.60;;;;;;5038196;28;20029;-75
2020/12/03 12:44:41;;;;;;;24.70;13.83;;;7.20;90.50;;;;;;5021501;28;20029;-77
2020/12/03 12:47:07;;;;;;;23.43;12.83;;;7.20;90.40;;;;;;5055862;28;20092;-77
2020/12/03 12:49:33;;;;;;;22.03;13.17;;;7.30;90.50;;;;;;5054546;28;20017;-77
2020/12/03 12:51:59;;;;;;;22.17;13.00;;;7.30;90.50;;;;;;5038071;28;20025;-76
2020/12/03 12:54:25;;;;;;;21.43;13.70;;;7.30;90.40;;;;;;5054226;28;20545;-76
2020/12/03 12:56:53;;;;;;;21.60;12.70;;;7.20;90.40;;;;;;5063370;28;20025;-75
2020/12/03 12:59:19;;;;;;;22.27;12.60;;;7.20;90.40;;;;;;5069095;28;20024;-75
2020/12/03 13:01:49;;;;;;;24.67;13.03;;;7.20;90.60;;;;;;5070822;28;20111;-75
2020/12/03 13:04:15;;;;;;;22.00;12.20;;;7.20;90.70;;;;;;5063490;28;20383;-75
2020/12/03 13:06:41;;;;;;;19.00;11.70;;;7.20;90.60;;;;;;5069180;28;20435;-78